Time;durP1;ratioP1;P1;durP2;ratioP2;P2;SDS_P1;SDS_P2;PMS_P1;PMS_P2;Temp;Humidity;BMP_temperature;BMP_pressure;BME280_temperature;BME280_humidity;BME280_pressure;Samples;Min_cycle;Max_cycle;Signal;HPM_P1;HPM_P2
2023/09/25 00:01:38;;;;;;;1.35;0.88;;;;;;;17.89;71.28;100132.53;4445416;32;34814;-81
2023/09/25 00:04:08;;;;;;;0.98;0.68;;;;;;;17.92;71.84;100126.31;4446858;32;33746;-79
2023/09/25 00:06:37;;;;;;;0.52;0.52;;;;;;;18.01;71.70;100131.22;4445532;32;33742;-79
2023/09/25 00:09:06;;;;;;;0.73;0.70;;;;;;;18.27;71.09;100130.25;4451294;32;33468;-80
2023/09/25 00:11:35;;;;;;;1.00;0.68;;;;;;;18.08;71.36;100122.22;4445835;32;33914;-79
2023/09/25 00:14:05;;;;;;;0.60;0.60;;;;;;;18.10;71.23;100119.53;4445097;32;33652;-79
2023/09/25 00:16:33;;;;;;;0.77;0.73;;;;;;;18.16;69.66;100111.41;4446931;32;33711;-78
2023/09/25 00:19:04;;;;;;;0.62;0.55;;;;;;;18.06;70.12;100121.41;4450930;32;33814;-79
2023/09/25 00:21:33;;;;;;;0.75;0.60;;;;;;;18.19;69.88;100116.53;4458394;32;34047;-80
2023/09/25 00:24:02;;;;;;;1.27;0.50;;;;;;;17.98;70.28;100105.09;4460640;32;34334;-81
2023/09/25 00:26:31;;;;;;;1.02;0.62;;;;;;;17.92;71.04;100114.03;4457402;32;33424;-79
2023/09/25 00:29:00;;;;;;;0.65;0.65;;;;;;;18.11;70.17;100108.97;4449607;32;34554;-80
2023/09/25 00:31:29;;;;;;;0.60;0.60;;;;;;;18.09;68.80;100102.91;4464198;32;34124;-81
2023/09/25 00:33:58;;;;;;;0.43;0.43;;;;;;;18.22;67.74;100089.31;4460575;32;33733;-80
2023/09/25 00:36:28;;;;;;;1.55;0.60;;;;;;;18.26;67.03;100094.37;4459633;32;33423;-79
2023/09/25 00:38:58;;;;;;;0.50;0.50;;;;;;;18.15;66.18;100100.97;4460703;32;32968;-81
2023/09/25 00:41:27;;;;;;;0.50;0.50;;;;;;;18.18;66.43;100100.84;4453311;32;33994;-78
2023/09/25 00:43:55;;;;;;;1.85;0.70;;;;;;;18.31;64.68;100094.22;4444767;32;33865;-80
2023/09/25 00:46:25;;;;;;;0.43;0.43;;;;;;;18.58;64.33;100102.81;4460773;32;32997;-79
2023/09/25 00:48:54;;;;;;;0.73;0.70;;;;;;;18.65;64.27;100099.03;4460252;32;34317;-78
2023/09/25 00:51:23;;;;;;;0.50;0.50;;;;;;;18.92;63.87;100104.09;4454741;32;34009;-80
2023/09/25 00:53:54;;;;;;;0.57;0.57;;;;;;;19.16;61.92;100103.09;4450932;32;34097;-79
2023/09/25 00:56:23;;;;;;;0.70;0.70;;;;;;;18.85;62.15;100098.25;4444659;32;33534;-81
2023/09/25 00:58:53;;;;;;;0.62;0.50;;;;;;;18.71;63.33;100093.50;4444777;32;34565;-80
2023/09/25 01:01:22;;;;;;;0.43;0.43;;;;;;;19.11;61.86;100094.53;4451099;32;33749;-81
2023/09/25 01:03:51;;;;;;;0.40;0.40;;;;;;;19.14;61.76;100099.66;4460936;32;33939;-78
2023/09/25 01:06:20;;;;;;;0.40;0.40;;;;;;;19.00;62.10;100103.78;4447475;32;34185;-79
2023/09/25 01:08:49;;;;;;;0.73;0.60;;;;;;;18.94;62.06;100104.87;4460057;32;33638;-80
2023/09/25 01:11:20;;;;;;;0.43;0.43;;;;;;;19.00;61.85;100123.03;4453217;32;33532;-81
2023/09/25 01:13:49;;;;;;;0.75;0.57;;;;;;;18.98;63.49;100130.12;4444932;32;33584;-80
2023/09/25 01:16:18;;;;;;;0.88;0.43;;;;;;;19.03;63.65;100122.91;4460841;32;34027;-79
2023/09/25 01:18:48;;;;;;;3.08;0.60;;;;;;;19.08;63.87;100130.59;4460175;32;33957;-79
2023/09/25 01:21:17;;;;;;;0.45;0.45;;;;;;;19.21;63.89;100136.22;4460005;32;33748;-80
2023/09/25 01:23:48;;;;;;;0.68;0.60;;;;;;;19.26;63.08;100131.63;4457367;32;33854;-80
2023/09/25 01:26:17;;;;;;;1.05;0.68;;;;;;;19.16;63.87;100142.53;4463400;32;33417;-81
2023/09/25 01:28:46;;;;;;;0.40;0.40;;;;;;;19.09;65.32;100141.06;4450149;32;34267;-81
2023/09/25 01:31:16;;;;;;;0.77;0.50;;;;;;;19.32;66.52;100132.22;4446768;32;33976;-79
2023/09/25 01:33:45;;;;;;;2.30;0.60;;;;;;;19.21;65.58;100133.56;4449786;32;34595;-80
2023/09/25 01:36:14;;;;;;;1.65;0.70;;;;;;;19.13;65.81;100137.38;4463362;32;32895;-82
2023/09/25 01:38:46;;;;;;;0.52;0.50;;;;;;;19.21;65.50;100137.09;4452251;32;32821;-79
2023/09/25 01:41:16;;;;;;;1.17;0.62;;;;;;;19.17;65.94;100136.34;4450276;32;33677;-79
2023/09/25 01:43:45;;;;;;;0.82;0.52;;;;;;;19.23;66.00;100126.47;4461706;32;36016;-79
2023/09/25 01:46:14;;;;;;;0.62;0.57;;;;;;;18.91;67.21;100126.03;4449397;32;33217;-80
2023/09/25 01:48:43;;;;;;;0.47;0.47;;;;;;;19.04;67.02;100127.25;4466222;32;33635;-81
2023/09/25 01:51:12;;;;;;;0.30;0.30;;;;;;;18.96;67.47;100111.78;4461990;32;33949;-79
2023/09/25 01:53:41;;;;;;;0.40;0.40;;;;;;;19.31;65.37;100103.34;4461738;32;33887;-81
2023/09/25 01:56:12;;;;;;;0.90;0.60;;;;;;;19.30;63.15;100099.84;4459222;32;33179;-80
2023/09/25 01:58:43;;;;;;;0.80;0.50;;;;;;;18.85;64.18;100092.97;4464465;32;33762;-79
2023/09/25 02:01:14;;;;;;;0.40;0.40;;;;;;;19.24;63.04;100084.34;4466666;32;33781;-80
2023/09/25 02:03:44;;;;;;;0.50;0.50;;;;;;;19.27;64.23;100075.47;4446349;32;34110;-79
2023/09/25 02:06:13;;;;;;;0.47;0.47;;;;;;;19.52;62.20;100052.44;4456073;32;33936;-80
2023/09/25 02:08:42;;;;;;;0.40;0.40;;;;;;;19.24;63.25;100051.94;4458103;32;33343;-80
2023/09/25 02:11:11;;;;;;;0.82;0.50;;;;;;;19.10;64.42;100049.88;4452020;32;34479;-79
2023/09/25 02:13:39;;;;;;;0.62;0.62;;;;;;;19.25;63.93;100054.47;4446079;32;34224;-79
2023/09/25 02:16:09;;;;;;;0.50;0.50;;;;;;;19.18;62.93;100039.88;4446241;32;33917;-79
2023/09/25 02:18:39;;;;;;;0.40;0.40;;;;;;;18.82;65.09;100050.19;4458225;32;33594;-79
2023/09/25 02:21:08;;;;;;;0.65;0.40;;;;;;;18.98;65.14;100041.59;4451765;32;34787;-81
2023/09/25 02:23:37;;;;;;;0.50;0.50;;;;;;;19.05;65.86;100036.09;4446344;32;33612;-81
2023/09/25 02:26:06;;;;;;;1.02;0.40;;;;;;;19.37;65.35;100046.03;4446154;32;33179;-80
2023/09/25 02:28:35;;;;;;;0.65;0.52;;;;;;;19.21;65.15;100031.00;4460299;32;34421;-80
2023/09/25 02:31:04;;;;;;;0.32;0.32;;;;;;;18.71;66.75;100019.91;4461653;32;33622;-80
2023/09/25 02:33:34;;;;;;;0.65;0.40;;;;;;;19.15;65.20;100006.69;4467180;32;33777;-81
2023/09/25 02:36:04;;;;;;;0.60;0.50;;;;;;;18.95;63.58;99998.81;4460264;32;33547;-80
2023/09/25 02:38:33;;;;;;;0.95;0.77;;;;;;;19.03;63.40;100004.56;4447306;32;34564;-79
2023/09/25 02:41:02;;;;;;;0.75;0.50;;;;;;;18.80;64.20;100004.69;4448314;32;34873;-80
2023/09/25 02:43:31;;;;;;;0.40;0.40;;;;;;;18.88;63.61;100013.97;4467017;32;34496;-79
2023/09/25 02:46:03;;;;;;;0.50;0.50;;;;;;;19.21;62.26;100025.75;4461323;32;33356;-80
2023/09/25 02:48:32;;;;;;;2.55;1.60;;;;;;;19.15;62.95;100027.72;4446827;32;34719;-81
2023/09/25 02:51:02;;;;;;;0.75;0.40;;;;;;;19.26;61.87;100024.63;4445971;32;33981;-79
2023/09/25 02:53:31;;;;;;;0.57;0.45;;;;;;;19.27;61.93;100022.84;4446330;32;33651;-80
2023/09/25 02:56:01;;;;;;;2.30;0.55;;;;;;;18.72;63.47;100028.66;4451454;32;33392;-80
2023/09/25 02:58:30;;;;;;;0.68;0.50;;;;;;;19.02;63.02;100023.91;4445722;32;34227;-79
2023/09/25 03:00:59;;;;;;;0.50;0.50;;;;;;;18.62;63.47;100016.81;4446028;32;34435;-81
2023/09/25 03:03:29;;;;;;;1.37;0.80;;;;;;;18.45;64.58;100020.13;4446283;32;33793;-80
2023/09/25 03:05:58;;;;;;;2.72;0.60;;;;;;;18.42;63.99;100020.25;4457608;32;33251;-79
2023/09/25 03:08:28;;;;;;;0.60;0.60;;;;;;;18.63;63.19;100022.00;4461079;32;33794;-80
2023/09/25 03:10:58;;;;;;;1.20;0.62;;;;;;;18.45;64.31;100028.00;4449900;32;33247;-80
2023/09/25 03:13:26;;;;;;;0.47;0.45;;;;;;;18.74;62.87;100038.19;4445727;32;34216;-79
2023/09/25 03:15:55;;;;;;;0.88;0.50;;;;;;;18.46;63.76;100040.22;4436163;32;32966;-80
2023/09/25 03:18:25;;;;;;;0.40;0.40;;;;;;;18.65;63.49;100038.56;4451445;32;34761;-81
2023/09/25 03:20:54;;;;;;;1.05;0.60;;;;;;;18.93;62.36;100055.84;4450227;32;33451;-80
2023/09/25 03:23:22;;;;;;;0.50;0.40;;;;;;;19.00;62.73;100065.19;4461102;32;34325;-79
2023/09/25 03:25:53;;;;;;;1.90;0.90;;;;;;;18.46;64.34;100063.84;4459093;32;32941;-80
2023/09/25 03:28:21;;;;;;;1.35;0.68;;;;;;;18.89;62.59;100063.00;4451516;32;36194;-79
2023/09/25 03:30:51;;;;;;;0.45;0.40;;;;;;;19.13;61.90;100066.38;4455776;32;33868;-80
2023/09/25 03:33:21;;;;;;;0.98;0.70;;;;;;;18.88;62.90;100065.72;4461154;32;33958;-79
2023/09/25 03:35:50;;;;;;;0.40;0.40;;;;;;;18.49;64.03;100074.25;4461311;32;32436;-81
2023/09/25 03:38:18;;;;;;;1.02;0.60;;;;;;;18.83;63.72;100073.78;4453666;32;33485;-79
2023/09/25 03:40:47;;;;;;;0.70;0.60;;;;;;;18.98;63.63;100081.03;4446932;32;33952;-81
2023/09/25 03:43:17;;;;;;;2.60;0.40;;;;;;;18.73;64.22;100103.97;4445568;32;33591;-80
2023/09/25 03:45:47;;;;;;;0.50;0.50;;;;;;;19.02;64.56;100113.31;4455313;32;33371;-79
2023/09/25 03:48:16;;;;;;;4.07;0.70;;;;;;;19.08;64.20;100117.47;4450718;32;33661;-79
2023/09/25 03:50:45;;;;;;;0.77;0.50;;;;;;;18.64;65.60;100122.72;4461643;32;33556;-78
2023/09/25 03:53:13;;;;;;;0.40;0.40;;;;;;;18.79;63.92;100137.06;4460991;32;33662;-80
2023/09/25 03:55:42;;;;;;;0.45;0.45;;;;;;;18.86;64.63;100147.25;4462128;32;33956;-82
2023/09/25 03:58:11;;;;;;;0.50;0.50;;;;;;;18.81;64.79;100159.72;4453007;32;33888;-79
2023/09/25 04:00:41;;;;;;;0.40;0.40;;;;;;;18.93;64.17;100159.25;4450737;32;34026;-81
2023/09/25 04:03:10;;;;;;;0.40;0.40;;;;;;;18.71;65.03;100155.72;4445450;32;33697;-79
2023/09/25 04:05:39;;;;;;;0.68;0.40;;;;;;;18.83;64.67;100162.31;4445688;32;33154;-81
2023/09/25 04:08:08;;;;;;;0.88;0.62;;;;;;;18.80;64.84;100167.66;4445213;32;33809;-79
2023/09/25 04:10:37;;;;;;;0.55;0.50;;;;;;;18.56;65.73;100175.56;4454114;32;33975;-79
2023/09/25 04:13:07;;;;;;;0.80;0.50;;;;;;;18.93;64.49;100169.75;4466312;32;34779;-81
2023/09/25 04:15:40;;;;;;;0.75;0.62;;;;;;;18.70;65.38;100175.03;4460596;32;34455;-81
2023/09/25 04:18:10;;;;;;;0.43;0.43;;;;;;;18.85;64.38;100181.50;4447388;32;33994;-79
2023/09/25 04:20:43;;;;;;;3.60;0.70;;;;;;;18.76;64.98;100178.31;4453700;32;33746;-80
2023/09/25 04:23:13;;;;;;;1.98;0.60;;;;;;;18.86;64.56;100176.16;4466193;32;33529;-80
2023/09/25 04:25:41;;;;;;;0.80;0.73;;;;;;;19.07;64.15;100177.09;4458861;32;33776;-80
2023/09/25 04:28:11;;;;;;;0.45;0.45;;;;;;;18.93;64.99;100172.37;4448039;32;33825;-79
2023/09/25 04:30:40;;;;;;;0.37;0.37;;;;;;;19.04;64.15;100182.50;4460494;32;33095;-81
2023/09/25 04:33:10;;;;;;;0.73;0.55;;;;;;;18.94;64.94;100175.84;4460616;32;34347;-82
2023/09/25 04:35:40;;;;;;;1.37;0.50;;;;;;;18.97;65.33;100173.13;4457231;32;33791;-79
2023/09/25 04:38:09;;;;;;;1.00;0.55;;;;;;;19.00;65.40;100182.66;4444755;32;33760;-79
2023/09/25 04:40:38;;;;;;;1.25;0.47;;;;;;;19.12;64.42;100185.66;4445518;32;33559;-80
2023/09/25 04:43:06;;;;;;;0.50;0.50;;;;;;;19.12;64.69;100183.03;4452272;32;33656;-79
2023/09/25 04:45:35;;;;;;;1.00;0.65;;;;;;;19.37;64.84;100184.62;4465557;32;34085;-80
2023/09/25 04:48:05;;;;;;;2.30;0.60;;;;;;;19.29;65.18;100186.75;4456616;32;33702;-80
2023/09/25 04:50:36;;;;;;;5.78;0.50;;;;;;;19.35;63.86;100181.22;4454717;32;34013;-79
2023/09/25 04:53:06;;;;;;;1.77;0.80;;;;;;;19.16;64.98;100189.87;4451622;32;33575;-79
2023/09/25 04:55:36;;;;;;;0.57;0.50;;;;;;;19.40;65.10;100184.50;4454804;32;33224;-81
2023/09/25 04:58:05;;;;;;;0.70;0.40;;;;;;;19.47;64.30;100193.84;4459138;32;34628;-80
2023/09/25 05:00:34;;;;;;;0.43;0.43;;;;;;;19.52;64.85;100188.41;4457125;32;34093;-82
2023/09/25 05:03:05;;;;;;;1.15;0.60;;;;;;;19.31;65.53;100184.91;4458863;32;33931;-80
2023/09/25 05:05:35;;;;;;;1.30;0.93;;;;;;;19.32;66.00;100191.88;4457420;32;34439;-81
2023/09/25 05:08:05;;;;;;;0.30;0.30;;;;;;;19.29;66.16;100192.00;4459967;32;33882;-79
2023/09/25 05:10:35;;;;;;;0.90;0.90;;;;;;;19.32;66.54;100192.72;4456540;32;34465;-80
2023/09/25 05:13:04;;;;;;;1.17;0.55;;;;;;;19.28;66.58;100199.03;4452717;32;33358;-81
2023/09/25 05:15:32;;;;;;;0.50;0.50;;;;;;;19.29;67.20;100200.75;4449844;32;33438;-80
2023/09/25 05:18:02;;;;;;;0.40;0.40;;;;;;;19.32;67.10;100190.09;4459629;32;33812;-80
2023/09/25 05:20:32;;;;;;;3.35;1.12;;;;;;;19.35;67.22;100195.25;4453554;32;34253;-78
2023/09/25 05:23:02;;;;;;;0.52;0.47;;;;;;;19.40;67.37;100200.28;4454211;32;34231;-80
2023/09/25 05:25:31;;;;;;;0.80;0.50;;;;;;;19.40;67.65;100206.44;4452242;32;32592;-79
2023/09/25 05:27:59;;;;;;;1.00;0.60;;;;;;;19.39;67.86;100219.63;4448277;32;34094;-81
2023/09/25 05:30:28;;;;;;;1.65;0.40;;;;;;;19.35;67.80;100213.66;4453067;32;33870;-80
2023/09/25 05:32:57;;;;;;;0.50;0.50;;;;;;;19.36;67.95;100212.72;4452494;32;33737;-80
2023/09/25 05:35:26;;;;;;;0.90;0.68;;;;;;;19.39;67.21;100203.84;4452573;32;32893;-79
2023/09/25 05:37:55;;;;;;;0.93;0.55;;;;;;;19.47;67.35;100214.06;4450798;32;33509;-80
2023/09/25 05:40:26;;;;;;;0.90;0.70;;;;;;;19.53;66.94;100212.03;4457806;32;32688;-81
2023/09/25 05:42:54;;;;;;;0.65;0.50;;;;;;;19.69;66.73;100212.28;4449338;32;34073;-79
2023/09/25 05:45:24;;;;;;;1.02;0.45;;;;;;;19.61;66.90;100216.97;4452220;32;34196;-80
2023/09/25 05:47:53;;;;;;;0.73;0.47;;;;;;;19.64;67.45;100215.97;4459014;32;33423;-79
2023/09/25 05:50:22;;;;;;;1.67;0.62;;;;;;;19.55;67.77;100228.62;4449325;32;34060;-80
2023/09/25 05:52:51;;;;;;;0.98;0.55;;;;;;;19.78;66.98;100230.28;4449518;32;33729;-80
2023/09/25 05:55:20;;;;;;;0.40;0.40;;;;;;;19.55;68.00;100238.28;4443428;32;33426;-80
2023/09/25 05:57:50;;;;;;;1.35;0.62;;;;;;;19.60;67.74;100245.06;4458621;32;33685;-80
2023/09/25 06:00:22;;;;;;;0.57;0.40;;;;;;;19.91;66.40;100245.56;4461448;32;33357;-81
2023/09/25 06:02:52;;;;;;;0.93;0.85;;;;;;;19.91;66.43;100241.19;4467618;32;33684;-79
2023/09/25 06:05:20;;;;;;;0.75;0.60;;;;;;;19.59;65.42;100247.75;4461876;32;33743;-81
2023/09/25 06:07:49;;;;;;;0.73;0.52;;;;;;;19.68;65.90;100243.94;4462699;32;34620;-79
2023/09/25 06:10:21;;;;;;;2.08;1.00;;;;;;;19.91;65.73;100243.81;4460167;32;34633;-80
2023/09/25 06:12:51;;;;;;;2.20;0.70;;;;;;;19.88;64.88;100251.81;4460067;32;34329;-81
2023/09/25 06:15:23;;;;;;;1.95;0.93;;;;;;;20.11;64.85;100261.37;4465746;32;32744;-79
2023/09/25 06:17:52;;;;;;;1.45;0.50;;;;;;;20.17;64.18;100260.25;4461505;32;33692;-80
2023/09/25 06:20:24;;;;;;;1.00;0.50;;;;;;;20.16;64.73;100258.53;4460545;32;33716;-79
2023/09/25 06:22:53;;;;;;;1.05;0.75;;;;;;;20.28;64.68;100265.06;4461755;32;33756;-81
2023/09/25 06:25:22;;;;;;;1.15;0.65;;;;;;;20.48;64.24;100261.53;4467365;32;33928;-79
2023/09/25 06:27:52;;;;;;;0.40;0.40;;;;;;;20.33;64.90;100263.06;4462050;32;34700;-81
2023/09/25 06:30:21;;;;;;;1.12;0.47;;;;;;;20.41;64.83;100267.06;4461618;32;34630;-79
2023/09/25 06:32:50;;;;;;;0.55;0.55;;;;;;;20.50;64.37;100270.22;4461948;32;34416;-79
2023/09/25 06:35:20;;;;;;;1.35;0.70;;;;;;;20.57;64.28;100274.34;4460461;32;33095;-81
2023/09/25 06:37:49;;;;;;;1.85;0.82;;;;;;;20.36;65.09;100271.69;4460157;32;34785;-81
2023/09/25 06:40:19;;;;;;;1.27;0.60;;;;;;;20.60;63.92;100279.44;4454555;32;33754;-80
2023/09/25 06:42:48;;;;;;;1.75;0.88;;;;;;;20.35;63.83;100282.31;4451005;32;33982;-80
2023/09/25 06:45:18;;;;;;;0.73;0.70;;;;;;;20.71;62.98;100287.75;4451462;32;34338;-81
2023/09/25 06:47:47;;;;;;;1.00;0.77;;;;;;;20.61;63.34;100287.31;4457721;32;33614;-80
2023/09/25 06:50:17;;;;;;;1.42;0.50;;;;;;;20.78;62.87;100286.53;4454074;32;33784;-80
2023/09/25 06:52:45;;;;;;;0.70;0.43;;;;;;;20.77;62.97;100302.41;4452432;32;33627;-80
2023/09/25 06:55:15;;;;;;;0.60;0.50;;;;;;;20.92;62.59;100295.56;4450219;32;34121;-79
2023/09/25 06:57:43;;;;;;;3.58;0.70;;;;;;;20.88;62.46;100298.37;4461652;32;33428;-80
2023/09/25 07:00:13;;;;;;;0.82;0.47;;;;;;;20.89;62.78;100300.06;4466615;32;33643;-80
2023/09/25 07:02:44;;;;;;;1.10;0.55;;;;;;;20.43;63.91;100294.22;4454002;32;34451;-81
2023/09/25 07:05:13;;;;;;;1.12;0.50;;;;;;;20.91;62.39;100302.66;4451936;32;32588;-80
2023/09/25 07:07:43;;;;;;;0.88;0.60;;;;;;;20.58;63.46;100303.25;4452537;32;33515;-80
2023/09/25 07:10:12;;;;;;;1.50;0.88;;;;;;;20.65;63.14;100301.19;4458102;32;33735;-81
2023/09/25 07:12:41;;;;;;;1.23;0.70;;;;;;;20.57;63.35;100312.09;4451366;32;32531;-79
2023/09/25 07:15:11;;;;;;;5.68;1.42;;;;;;;20.96;62.45;100300.66;4453234;32;33460;-80
2023/09/25 07:17:40;;;;;;;2.58;1.35;;;;;;;20.95;62.08;100298.06;4454367;32;34731;-81
2023/09/25 07:20:11;;;;;;;1.30;0.95;;;;;;;20.78;62.71;100293.56;4463343;32;34745;-79
2023/09/25 07:22:45;;;;;;;3.75;0.62;;;;;;;20.43;63.81;100288.94;4455968;32;34439;-80
2023/09/25 07:25:14;;;;;;;0.80;0.50;;;;;;;20.69;63.11;100292.22;4461182;32;34137;-80
2023/09/25 07:27:43;;;;;;;2.42;0.73;;;;;;;21.06;62.06;100287.87;4461288;32;34525;-79
2023/09/25 07:30:14;;;;;;;1.30;0.70;;;;;;;20.56;64.07;100291.06;4461323;32;34752;-80
2023/09/25 07:32:43;;;;;;;0.77;0.70;;;;;;;20.89;62.31;100291.31;4466881;32;34206;-80
2023/09/25 07:35:15;;;;;;;1.95;1.12;;;;;;;20.88;62.58;100290.44;4456136;32;33138;-80
2023/09/25 07:37:44;;;;;;;1.33;0.62;;;;;;;20.94;63.14;100293.72;4450629;32;33816;-81
2023/09/25 07:40:14;;;;;;;2.05;0.50;;;;;;;20.74;63.22;100295.50;4461242;32;33872;-79
2023/09/25 07:42:43;;;;;;;0.73;0.60;;;;;;;20.72;63.92;100297.34;4466582;32;33825;-81
2023/09/25 07:45:18;;;;;;;1.30;0.60;;;;;;;20.59;63.97;100304.97;4465252;32;33640;-81
2023/09/25 07:47:48;;;;;;;4.68;1.23;;;;;;;20.90;63.44;100308.84;4453271;32;34265;-79
2023/09/25 07:50:19;;;;;;;1.12;0.70;;;;;;;20.98;62.92;100317.25;4448743;32;33661;-80
2023/09/25 07:52:53;;;;;;;2.55;1.67;;;;;;;21.02;63.10;100317.97;4453720;32;33704;-81
2023/09/25 07:55:22;;;;;;;0.95;0.60;;;;;;;21.11;62.62;100322.81;4459114;32;33279;-79
2023/09/25 07:57:51;;;;;;;1.15;0.50;;;;;;;21.28;62.64;100319.38;4452202;32;33539;-79
2023/09/25 08:00:23;;;;;;;1.67;0.82;;;;;;;21.24;63.02;100326.59;4455053;32;34116;-82
2023/09/25 08:02:53;;;;;;;1.58;0.80;;;;;;;21.39;62.76;100332.09;4453459;32;33599;-79
2023/09/25 08:05:23;;;;;;;4.68;0.90;;;;;;;21.54;62.48;100336.66;4452561;32;33299;-80
2023/09/25 08:07:52;;;;;;;4.27;0.63;;;;;;;21.48;62.53;100352.75;4464727;32;33627;-79
2023/09/25 08:10:24;;;;;;;3.37;1.37;;;;;;;21.45;62.18;100359.06;4459105;32;34692;-79
2023/09/25 08:12:54;;;;;;;4.60;1.02;;;;;;;21.21;62.87;100355.75;4460892;32;33855;-79
2023/09/25 08:15:27;;;;;;;1.87;0.50;;;;;;;21.70;62.00;100364.03;4460649;32;33716;-80
2023/09/25 08:17:56;;;;;;;0.68;0.52;;;;;;;21.58;62.15;100358.50;4452677;32;33758;-79
2023/09/25 08:20:27;;;;;;;0.68;0.60;;;;;;;21.62;62.19;100363.53;4449173;32;33625;-80
2023/09/25 08:22:56;;;;;;;0.93;0.57;;;;;;;21.74;61.82;100362.91;4451833;32;33663;-80
2023/09/25 08:25:25;;;;;;;0.65;0.60;;;;;;;21.67;61.43;100353.62;4453344;32;33419;-81
2023/09/25 08:27:54;;;;;;;1.55;0.90;;;;;;;21.62;62.09;100344.19;4449819;32;33526;-81
2023/09/25 08:30:23;;;;;;;1.05;0.62;;;;;;;21.47;62.17;100333.44;4458738;32;33984;-80
2023/09/25 08:32:53;;;;;;;0.65;0.57;;;;;;;21.72;62.21;100333.13;4447066;32;34517;-80
2023/09/25 08:35:23;;;;;;;3.35;1.37;;;;;;;21.88;61.99;100346.41;4453701;32;33804;-80
2023/09/25 08:37:54;;;;;;;0.73;0.62;;;;;;;21.88;62.04;100351.69;4452241;32;34687;-79
2023/09/25 08:40:23;;;;;;;1.92;0.70;;;;;;;21.61;62.13;100339.84;4450861;32;33975;-79
2023/09/25 08:42:53;;;;;;;;;;;;;;;22.03;61.38;100341.28;4444986;32;33463;-79
2023/09/25 08:45:44;;;;;;;0.90;0.57;;;;;;;21.74;61.75;100339.16;4455081;32;33090;-79
2023/09/25 08:48:13;;;;;;;0.95;0.75;;;;;;;22.06;61.15;100338.47;4454497;32;34604;-81
2023/09/25 08:50:42;;;;;;;0.98;0.68;;;;;;;21.99;61.57;100340.59;4449871;32;33638;-80
2023/09/25 08:53:12;;;;;;;1.08;0.93;;;;;;;21.99;61.80;100340.59;4450892;32;33525;-79
2023/09/25 08:55:42;;;;;;;2.67;0.60;;;;;;;22.13;62.07;100340.75;4445137;32;32495;-80
2023/09/25 08:58:11;;;;;;;3.50;0.60;;;;;;;22.07;61.91;100343.69;4453293;32;33831;-80
2023/09/25 09:00:40;;;;;;;1.48;0.80;;;;;;;22.30;61.86;100336.41;4449233;32;33949;-82
2023/09/25 09:03:09;;;;;;;1.98;0.40;;;;;;;22.16;61.69;100347.69;4443094;32;33457;-79
2023/09/25 09:05:39;;;;;;;1.33;0.62;;;;;;;22.52;61.14;100339.66;4451331;32;33772;-81
2023/09/25 09:08:08;;;;;;;2.33;0.75;;;;;;;22.20;60.53;100346.59;4444699;32;33851;-80
2023/09/25 09:10:39;;;;;;;0.88;0.55;;;;;;;22.32;61.09;100348.63;4451256;32;33714;-80
2023/09/25 09:13:10;;;;;;;1.15;0.62;;;;;;;22.42;60.70;100351.63;4450034;32;33782;-80
2023/09/25 09:15:41;;;;;;;0.90;0.57;;;;;;;22.61;59.88;100345.41;4455993;32;33789;-81
2023/09/25 09:18:20;;;;;;;1.95;0.57;;;;;;;22.78;59.69;100348.00;4452870;32;32927;-80
2023/09/25 09:20:54;;;;;;;3.05;0.70;;;;;;;22.74;59.80;100357.06;4452715;32;33700;-81
2023/09/25 09:23:39;;;;;;;3.87;0.55;;;;;;;22.48;60.25;100348.69;4448512;32;33638;-80
2023/09/25 09:26:10;;;;;;;1.58;0.80;;;;;;;22.59;60.08;100353.41;4451400;32;32884;-80
2023/09/25 09:28:39;;;;;;;1.80;0.70;;;;;;;22.59;60.32;100358.69;4452594;32;33526;-80
2023/09/25 09:31:08;;;;;;;2.17;0.77;;;;;;;22.76;60.19;100358.69;4437992;32;33477;-80
2023/09/25 09:33:41;;;;;;;3.62;0.90;;;;;;;22.84;59.63;100355.63;4459960;32;33841;-80
2023/09/25 09:36:10;;;;;;;1.23;0.77;;;;;;;22.87;59.62;100366.03;4459641;32;32788;-80
2023/09/25 09:38:40;;;;;;;0.68;0.57;;;;;;;22.81;59.54;100366.37;4458715;32;34711;-80
2023/09/25 09:41:11;;;;;;;1.67;0.70;;;;;;;22.71;59.60;100358.06;4462716;32;34772;-80
2023/09/25 09:43:41;;;;;;;1.05;0.80;;;;;;;22.64;60.70;100358.44;4454737;32;33594;-80
2023/09/25 09:46:12;;;;;;;1.83;0.70;;;;;;;22.90;59.55;100351.78;4452296;32;32361;-80
2023/09/25 09:48:44;;;;;;;5.18;1.80;;;;;;;22.89;59.42;100358.03;4448533;32;34348;-80
2023/09/25 09:51:14;;;;;;;3.20;1.12;;;;;;;23.09;58.70;100346.38;4454686;32;32687;-81
2023/09/25 09:53:43;;;;;;;1.73;0.80;;;;;;;23.13;58.23;100340.00;4456430;32;34656;-79
2023/09/25 09:56:15;;;;;;;1.17;0.70;;;;;;;23.03;58.88;100346.69;4461986;32;33766;-80
2023/09/25 09:58:44;;;;;;;2.33;0.73;;;;;;;23.27;59.04;100344.50;4461862;32;34031;-81
2023/09/25 10:01:13;;;;;;;1.35;0.60;;;;;;;23.23;59.01;100349.13;4461708;32;34768;-80
2023/09/25 10:03:42;;;;;;;1.58;1.02;;;;;;;23.47;58.81;100348.69;4467343;32;33737;-79
2023/09/25 10:06:11;;;;;;;1.02;0.50;;;;;;;23.23;58.60;100356.22;4461629;32;34162;-79
2023/09/25 10:08:59;;;;;;;0.98;0.52;;;;;;;23.39;58.69;100355.28;4456654;32;33627;-81
2023/09/25 10:11:29;;;;;;;1.80;0.70;;;;;;;23.65;58.09;100355.59;4454259;32;34016;-81
2023/09/25 10:14:03;;;;;;;2.55;0.55;;;;;;;23.87;57.41;100357.03;4453581;32;33651;-82
2023/09/25 10:16:54;;;;;;;2.28;1.00;;;;;;;23.91;56.64;100359.44;4457325;32;33228;-81
2023/09/25 10:19:47;;;;;;;1.55;0.68;;;;;;;24.00;57.53;100356.25;4452665;32;33882;-80
2023/09/25 10:22:22;;;;;;;0.68;0.65;;;;;;;23.91;57.22;100353.28;4452444;32;33316;-80
2023/09/25 10:25:00;;;;;;;2.22;1.33;;;;;;;23.87;57.65;100355.25;4453517;32;34161;-80
2023/09/25 10:27:32;;;;;;;1.83;0.80;;;;;;;23.98;57.09;100352.81;4456123;32;33428;-81
2023/09/25 10:30:11;;;;;;;1.73;0.95;;;;;;;24.20;56.10;100360.38;4454561;32;34183;-81
2023/09/25 10:32:41;;;;;;;2.47;0.93;;;;;;;23.36;58.42;100357.22;4462080;32;34509;-81
2023/09/25 10:35:39;;;;;;;1.75;0.85;;;;;;;23.40;58.26;100359.63;4454308;32;33481;-81
2023/09/25 10:38:11;;;;;;;1.17;0.85;;;;;;;23.61;58.31;100360.22;4454830;32;32680;-81
2023/09/25 10:41:01;;;;;;;4.67;2.23;;;;;;;23.64;57.78;100352.09;4454150;32;34268;-79
2023/09/25 10:43:31;;;;;;;4.07;0.80;;;;;;;23.34;59.00;100353.81;4449090;32;33993;-80
2023/09/25 10:46:01;;;;;;;1.17;0.95;;;;;;;23.48;58.54;100363.63;4455260;32;33294;-80
2023/09/25 10:48:31;;;;;;;0.95;0.55;;;;;;;23.45;58.56;100359.37;4456665;32;33390;-80
2023/09/25 10:51:00;;;;;;;1.52;0.88;;;;;;;23.24;59.28;100350.81;4451879;32;32612;-80
2023/09/25 10:53:31;;;;;;;1.37;0.77;;;;;;;23.29;58.53;100354.06;4453528;32;34864;-79
2023/09/25 10:56:00;;;;;;;3.35;1.27;;;;;;;23.25;59.17;100351.69;4452059;32;34083;-80
2023/09/25 10:58:30;;;;;;;2.12;0.90;;;;;;;23.82;57.48;100355.53;4457538;32;33348;-80
2023/09/25 11:01:02;;;;;;;1.00;0.70;;;;;;;23.68;57.97;100352.78;4447958;32;33799;-79
2023/09/25 11:03:36;;;;;;;2.90;0.70;;;;;;;23.63;58.04;100352.16;4450776;32;34909;-80
2023/09/25 11:06:06;;;;;;;3.28;0.75;;;;;;;23.73;58.00;100353.41;4446157;32;33289;-79
2023/09/25 11:08:36;;;;;;;1.45;0.70;;;;;;;23.75;57.90;100350.66;4446852;32;33810;-79
2023/09/25 11:11:06;;;;;;;1.10;0.65;;;;;;;23.90;57.39;100341.84;4460514;32;34377;-79
2023/09/25 11:13:36;;;;;;;0.98;0.55;;;;;;;23.90;57.56;100341.84;4459048;32;33505;-80
2023/09/25 11:16:06;;;;;;;1.03;0.60;;;;;;;24.06;57.49;100339.13;4448811;32;34067;-79
2023/09/25 11:18:35;;;;;;;4.00;1.10;;;;;;;24.40;55.97;100334.47;4452549;32;33416;-79
2023/09/25 11:21:05;;;;;;;2.08;0.88;;;;;;;24.38;56.81;100329.25;4462400;32;33924;-80
2023/09/25 11:23:34;;;;;;;1.73;1.00;;;;;;;24.48;55.97;100329.59;4451793;32;34649;-81
2023/09/25 11:26:03;;;;;;;1.95;0.88;;;;;;;24.54;56.37;100331.00;4452025;32;34840;-80
2023/09/25 11:28:33;;;;;;;4.82;0.82;;;;;;;24.68;54.68;100329.22;4447405;32;33129;-81
2023/09/25 11:31:04;;;;;;;0.68;0.60;;;;;;;24.68;55.91;100328.34;4463594;32;33797;-81
2023/09/25 11:33:34;;;;;;;0.82;0.50;;;;;;;24.82;55.27;100320.41;4466346;32;33744;-80
2023/09/25 11:36:10;;;;;;;3.45;1.05;;;;;;;24.95;53.92;100316.97;4460694;32;34067;-79
2023/09/25 11:38:39;;;;;;;6.15;1.60;;;;;;;24.51;55.75;100328.56;4461152;32;33498;-80